createdAt,value
2023-01-06T00:01:13.219Z,88.50
2023-01-06T00:03:41.008Z,88.43
2023-01-06T00:06:13.293Z,88.38
2023-01-06T00:08:41.399Z,88.04
2023-01-06T00:11:09.884Z,88.11
2023-01-06T00:13:38.238Z,88.10
2023-01-06T00:16:07.497Z,88.04
2023-01-06T00:18:35.401Z,88.20
2023-01-06T00:21:03.684Z,88.05
2023-01-06T00:23:33.045Z,87.96
2023-01-06T00:26:01.104Z,87.83
2023-01-06T00:28:28.811Z,87.46
2023-01-06T00:30:56.936Z,87.61
2023-01-06T00:33:25.390Z,87.52
2023-01-06T00:35:53.120Z,87.21
2023-01-06T00:38:20.853Z,87.26
2023-01-06T00:40:49.838Z,87.42
2023-01-06T00:43:17.576Z,87.49
2023-01-06T00:45:45.247Z,87.23
2023-01-06T00:48:13.036Z,87.30
2023-01-06T00:50:40.770Z,87.25
2023-01-06T00:53:08.531Z,87.28
2023-01-06T00:55:36.577Z,87.29
2023-01-06T00:58:05.618Z,87.40
2023-01-06T01:00:33.303Z,87.33
2023-01-06T01:03:00.971Z,87.45
2023-01-06T01:05:28.723Z,87.27
2023-01-06T01:07:56.533Z,87.11
2023-01-06T01:10:24.234Z,86.96
2023-01-06T01:12:54.213Z,87.00
2023-01-06T01:15:23.408Z,87.04
2023-01-06T01:17:51.178Z,86.84
2023-01-06T01:20:18.904Z,87.05
2023-01-06T01:22:46.586Z,86.83
2023-01-06T01:25:14.281Z,86.84
2023-01-06T01:27:41.967Z,86.74
2023-01-06T01:30:10.440Z,86.89
2023-01-06T01:32:39.486Z,86.95
2023-01-06T01:35:07.894Z,86.73
2023-01-06T01:37:35.790Z,86.57
2023-01-06T01:40:04.170Z,86.56
2023-01-06T01:42:31.984Z,86.74
2023-01-06T01:45:03.771Z,86.58
2023-01-06T01:47:41.890Z,86.94
2023-01-06T01:50:15.729Z,87.06
2023-01-06T01:52:45.784Z,87.06
2023-01-06T01:55:15.247Z,87.19
2023-01-06T01:57:49.315Z,87.52
2023-01-06T02:00:19.869Z,87.52
2023-01-06T02:02:49.836Z,87.68
2023-01-06T02:05:23.780Z,87.65
2023-01-06T02:07:51.935Z,87.63
2023-01-06T02:10:21.966Z,87.72
2023-01-06T02:12:55.308Z,87.85
2023-01-06T02:15:25.604Z,87.82
2023-01-06T02:18:12.238Z,87.84
2023-01-06T02:20:51.602Z,87.61
2023-01-06T02:23:43.526Z,87.55
2023-01-06T02:26:44.965Z,87.88
2023-01-06T02:29:58.440Z,87.61
2023-01-06T02:32:38.561Z,87.67
2023-01-06T02:35:22.305Z,87.75
2023-01-06T02:38:04.788Z,87.14
2023-01-06T02:40:48.943Z,87.15
2023-01-06T02:43:27.995Z,87.13
2023-01-06T02:46:09.657Z,87.13
2023-01-06T02:48:50.983Z,87.11
2023-01-06T02:51:25.610Z,87.02
2023-01-06T02:54:05.108Z,87.04
2023-01-06T02:56:39.769Z,87.02
2023-01-06T02:59:12.070Z,87.11
2023-01-06T03:01:43.337Z,86.93
2023-01-06T03:04:18.224Z,87.04
2023-01-06T03:06:49.287Z,86.93
2023-01-06T03:09:24.276Z,86.78
2023-01-06T03:11:52.787Z,86.73
2023-01-06T03:14:26.957Z,86.68
2023-01-06T03:16:56.076Z,86.59
2023-01-06T03:19:26.241Z,86.56
2023-01-06T03:21:55.489Z,86.67
2023-01-06T03:24:24.258Z,86.68
2023-01-06T03:26:54.389Z,86.60
2023-01-06T03:29:24.166Z,86.34
2023-01-06T03:32:01.318Z,86.44
2023-01-06T03:34:46.987Z,86.21
2023-01-06T03:37:26.041Z,86.30
2023-01-06T03:39:59.698Z,86.35
2023-01-06T03:42:53.804Z,86.48
2023-01-06T03:45:41.586Z,86.62
2023-01-06T03:48:14.555Z,86.59
2023-01-06T03:50:49.210Z,86.24
2023-01-06T03:53:34.544Z,86.20
2023-01-06T03:56:13.949Z,86.29
2023-01-06T03:58:42.416Z,86.19
2023-01-06T04:01:12.240Z,86.09
2023-01-06T04:03:40.979Z,85.97
2023-01-06T04:06:10.077Z,85.95
2023-01-06T04:08:38.903Z,85.75
2023-01-06T04:11:06.868Z,85.62
2023-01-06T04:13:33.593Z,85.50
2023-01-06T04:16:01.680Z,85.37
2023-01-06T04:18:29.432Z,85.20
2023-01-06T04:20:57.132Z,85.14
2023-01-06T04:23:32.882Z,85.18
2023-01-06T04:26:02.156Z,84.74
2023-01-06T04:28:37.724Z,84.64
2023-01-06T04:31:06.103Z,84.63
2023-01-06T04:33:35.975Z,83.94
2023-01-06T04:36:06.898Z,83.67
2023-01-06T04:38:37.220Z,83.38
2023-01-06T04:41:05.298Z,83.64
2023-01-06T04:43:33.054Z,83.27
2023-01-06T04:46:00.837Z,83.08
2023-01-06T04:48:28.526Z,82.80
2023-01-06T04:51:01.719Z,82.72
2023-01-06T04:53:29.473Z,82.68
2023-01-06T04:56:03.790Z,82.73
2023-01-06T04:58:31.914Z,82.83
2023-01-06T05:01:03.120Z,82.30
2023-01-06T05:03:30.931Z,82.63
2023-01-06T05:06:02.489Z,82.39
2023-01-06T05:08:31.161Z,82.30
2023-01-06T05:11:04.793Z,82.36
2023-01-06T05:13:33.089Z,82.36
2023-01-06T05:16:00.875Z,82.47
2023-01-06T05:18:28.596Z,81.94
2023-01-06T05:20:56.621Z,82.28
2023-01-06T05:23:24.313Z,81.78
2023-01-06T05:25:52.833Z,82.10
2023-01-06T05:28:22.333Z,81.78
2023-01-06T05:30:50.161Z,82.02
2023-01-06T05:33:17.833Z,81.77
2023-01-06T05:35:45.521Z,81.86
2023-01-06T05:38:13.172Z,81.87
2023-01-06T05:40:40.873Z,81.60
2023-01-06T05:43:09.201Z,81.95
2023-01-06T05:45:38.326Z,81.83
2023-01-06T05:48:06.468Z,81.62
2023-01-06T05:50:34.133Z,81.47
2023-01-06T05:53:01.898Z,81.32
2023-01-06T05:55:29.580Z,81.07
2023-01-06T05:57:57.375Z,81.38
2023-01-06T06:00:25.292Z,80.85
2023-01-06T06:02:54.434Z,80.78
2023-01-06T06:05:22.203Z,80.52
2023-01-06T06:07:53.884Z,80.59
2023-01-06T06:10:21.790Z,80.48
2023-01-06T06:12:51.380Z,80.31
2023-01-06T06:15:19.526Z,79.68
2023-01-06T06:17:47.215Z,79.64
2023-01-06T06:20:16.325Z,79.76
2023-01-06T06:22:43.978Z,79.86
2023-01-06T06:25:11.635Z,79.89
2023-01-06T06:27:39.381Z,79.71
2023-01-06T06:30:08.479Z,79.51
2023-01-06T06:32:36.188Z,79.55
2023-01-06T06:35:03.972Z,79.12
2023-01-06T06:37:32.972Z,79.27
2023-01-06T06:40:00.659Z,79.15
2023-01-06T06:42:28.424Z,79.31
2023-01-06T06:44:56.140Z,78.84
2023-01-06T06:47:23.811Z,79.06
2023-01-06T06:49:52.152Z,78.68
2023-01-06T06:52:19.817Z,78.88
2023-01-06T06:54:48.828Z,78.49
2023-01-06T06:57:16.484Z,78.63
2023-01-06T06:59:44.499Z,78.04
2023-01-06T07:02:12.313Z,78.19
2023-01-06T07:04:40.086Z,78.34
2023-01-06T07:07:07.805Z,77.61
2023-01-06T07:09:35.522Z,78.12
2023-01-06T07:12:04.968Z,77.74
2023-01-06T07:14:32.623Z,78.03
2023-01-06T07:17:01.296Z,78.07
2023-01-06T07:19:29.120Z,78.03
2023-01-06T07:21:56.828Z,78.10
2023-01-06T07:24:24.471Z,78.29
2023-01-06T07:26:52.163Z,78.19
2023-01-06T07:29:21.309Z,78.40
2023-01-06T07:31:48.981Z,78.35
2023-01-06T07:34:16.648Z,78.44
2023-01-06T07:36:44.432Z,77.91
2023-01-06T07:39:12.062Z,78.29
2023-01-06T07:41:39.714Z,78.24
2023-01-06T07:44:12.449Z,78.12
2023-01-06T07:46:41.474Z,78.32
2023-01-06T07:49:09.157Z,78.10
2023-01-06T07:51:36.827Z,78.17
2023-01-06T07:54:04.581Z,78.24
2023-01-06T07:56:32.333Z,78.22
2023-01-06T07:58:59.965Z,78.39
2023-01-06T08:01:27.749Z,78.62
2023-01-06T08:03:57.015Z,78.55
2023-01-06T08:06:24.706Z,78.79
2023-01-06T08:08:52.525Z,78.33
2023-01-06T08:11:20.286Z,78.48
2023-01-06T08:13:47.949Z,78.60
2023-01-06T08:16:15.641Z,78.35
2023-01-06T08:18:43.498Z,78.16
2023-01-06T08:21:13.050Z,77.84
2023-01-06T08:23:40.923Z,78.32
2023-01-06T08:26:10.603Z,78.02
2023-01-06T08:28:38.306Z,78.09
2023-01-06T08:31:09.908Z,77.47
2023-01-06T08:33:37.727Z,77.55
2023-01-06T08:36:07.476Z,77.53
2023-01-06T08:38:37.489Z,77.67
2023-01-06T08:41:05.910Z,77.71
2023-01-06T08:43:33.610Z,77.77
2023-01-06T08:46:02.447Z,77.66
2023-01-06T08:48:31.063Z,77.81
2023-01-06T08:51:03.759Z,77.30
2023-01-06T08:53:31.707Z,77.66
2023-01-06T08:56:00.885Z,77.46
2023-01-06T08:58:28.666Z,77.26
2023-01-06T09:00:56.587Z,77.58
2023-01-06T09:03:24.250Z,77.58
2023-01-06T09:05:55.700Z,77.30
2023-01-06T09:08:23.585Z,77.55
2023-01-06T09:10:51.658Z,76.70
2023-01-06T09:13:20.699Z,77.46
2023-01-06T09:15:49.020Z,78.03
2023-01-06T09:18:16.870Z,78.71
2023-01-06T09:20:48.168Z,78.81
2023-01-06T09:23:15.835Z,78.83
2023-01-06T09:25:43.493Z,79.50
2023-01-06T09:28:11.169Z,79.85
2023-01-06T09:30:40.848Z,80.79
2023-01-06T09:33:08.675Z,80.61
2023-01-06T09:35:36.359Z,80.21
2023-01-06T09:38:04.041Z,80.48
2023-01-06T09:40:44.734Z,80.84
2023-01-06T09:43:24.493Z,81.15
2023-01-06T09:45:56.187Z,80.92
2023-01-06T09:48:29.321Z,81.34
2023-01-06T09:51:01.024Z,81.88
2023-01-06T09:53:32.954Z,82.26
2023-01-06T09:56:03.808Z,82.57
2023-01-06T09:58:36.311Z,82.23
2023-01-06T10:01:10.368Z,82.54
2023-01-06T10:03:38.169Z,82.62
2023-01-06T10:06:21.511Z,83.47
2023-01-06T10:08:58.445Z,83.42
2023-01-06T10:11:42.754Z,83.63
2023-01-06T10:14:17.506Z,83.35
2023-01-06T10:16:59.581Z,83.67
2023-01-06T10:19:45.098Z,83.77
2023-01-06T10:22:21.917Z,84.43
2023-01-06T10:24:56.098Z,84.55
2023-01-06T10:27:29.069Z,84.43
2023-01-06T10:30:00.297Z,84.44
2023-01-06T10:32:32.975Z,84.33
2023-01-06T10:35:01.305Z,84.21
2023-01-06T10:37:34.051Z,84.22
2023-01-06T10:40:15.590Z,83.88
2023-01-06T10:42:57.408Z,83.82
2023-01-06T10:45:27.531Z,83.80
2023-01-06T10:47:57.429Z,83.93
2023-01-06T10:50:25.780Z,84.20
2023-01-06T10:52:53.854Z,84.21
2023-01-06T10:55:33.215Z,84.16
2023-01-06T10:58:07.855Z,83.80
2023-01-06T11:00:35.672Z,83.88
2023-01-06T11:03:31.577Z,83.62
2023-01-06T11:06:02.775Z,83.21
2023-01-06T11:08:30.962Z,83.04
2023-01-06T11:10:59.744Z,82.65
2023-01-06T11:13:33.516Z,81.97
2023-01-06T11:16:05.751Z,81.08
2023-01-06T11:18:38.363Z,80.36
2023-01-06T11:21:11.563Z,80.92
2023-01-06T11:23:42.487Z,80.89
2023-01-06T11:26:22.337Z,80.63
2023-01-06T11:28:55.378Z,80.58
2023-01-06T11:31:26.855Z,80.22
2023-01-06T11:33:59.205Z,80.00
2023-01-06T11:36:30.643Z,80.19
2023-01-06T11:39:01.657Z,79.74
2023-01-06T11:41:34.874Z,79.51
2023-01-06T11:44:09.158Z,79.01
2023-01-06T11:46:38.707Z,79.20
2023-01-06T11:49:16.891Z,78.90
2023-01-06T11:51:49.920Z,79.42
2023-01-06T11:54:26.222Z,78.50
2023-01-06T11:57:01.548Z,77.56
2023-01-06T11:59:40.084Z,76.30
2023-01-06T12:02:14.598Z,76.10
2023-01-06T12:04:49.400Z,76.38
2023-01-06T12:07:22.757Z,74.51
2023-01-06T12:09:52.797Z,74.29
2023-01-06T12:12:23.800Z,73.72
2023-01-06T12:14:51.587Z,73.23
2023-01-06T12:17:32.277Z,73.31
2023-01-06T12:20:05.971Z,72.93
2023-01-06T12:22:40.306Z,73.23
2023-01-06T12:25:14.926Z,73.63
2023-01-06T12:27:47.768Z,74.45
2023-01-06T12:30:19.820Z,75.03
2023-01-06T12:32:50.122Z,75.89
2023-01-06T12:35:25.105Z,75.94
2023-01-06T12:37:56.944Z,76.72
2023-01-06T12:40:31.639Z,76.65
2023-01-06T12:43:11.874Z,76.69
2023-01-06T12:45:56.584Z,77.11
2023-01-06T12:48:34.373Z,77.27
2023-01-06T12:51:10.081Z,77.95
2023-01-06T12:53:42.904Z,78.22
2023-01-06T12:56:37.003Z,78.75
2023-01-06T12:59:17.376Z,79.10
2023-01-06T13:01:51.936Z,79.34
2023-01-06T13:04:51.773Z,79.80
2023-01-06T13:07:33.060Z,80.50
2023-01-06T13:10:13.742Z,80.66
2023-01-06T13:13:07.384Z,80.66
2023-01-06T13:15:39.725Z,80.71
2023-01-06T13:18:16.358Z,80.63
2023-01-06T13:20:46.919Z,79.92
2023-01-06T13:23:35.306Z,80.05
2023-01-06T13:26:34.647Z,78.77
2023-01-06T13:29:12.206Z,78.59
2023-01-06T13:32:02.305Z,77.96
2023-01-06T13:34:55.218Z,77.67
2023-01-06T13:37:53.341Z,76.75
2023-01-06T13:40:27.012Z,75.77
2023-01-06T13:42:59.299Z,75.67
2023-01-06T13:45:31.394Z,75.19
2023-01-06T13:48:01.195Z,74.73
2023-01-06T13:50:29.729Z,73.18
2023-01-06T13:52:57.680Z,73.74
2023-01-06T13:55:30.149Z,74.64
2023-01-06T13:58:18.442Z,75.09
2023-01-06T14:01:05.051Z,75.13
2023-01-06T14:03:33.332Z,74.89
2023-01-06T14:06:02.409Z,74.41
2023-01-06T14:08:33.829Z,73.86
2023-01-06T14:11:21.847Z,74.28
2023-01-06T14:13:55.358Z,74.83
2023-01-06T14:16:38.949Z,75.48
2023-01-06T14:19:09.312Z,75.91
2023-01-06T14:21:37.472Z,75.81
2023-01-06T14:24:07.831Z,76.17
2023-01-06T14:26:51.320Z,76.38
2023-01-06T14:29:56.351Z,76.04
2023-01-06T14:32:59.273Z,76.45
2023-01-06T14:35:30.758Z,76.58
2023-01-06T14:38:02.739Z,76.80
2023-01-06T14:40:33.739Z,76.51
2023-01-06T14:43:08.055Z,76.39
2023-01-06T14:45:39.469Z,76.72
2023-01-06T14:48:13.884Z,76.84
2023-01-06T14:50:47.371Z,77.40
2023-01-06T14:53:23.226Z,77.53
2023-01-06T14:55:51.851Z,77.62
2023-01-06T14:58:31.661Z,77.98
2023-01-06T15:01:00.326Z,78.34
2023-01-06T15:03:29.088Z,78.24
2023-01-06T15:06:21.376Z,78.76
2023-01-06T15:08:49.449Z,79.16
2023-01-06T15:11:25.545Z,79.40
2023-01-06T15:13:54.823Z,79.78
2023-01-06T15:16:35.580Z,79.82
2023-01-06T15:19:06.974Z,79.92
2023-01-06T15:21:39.802Z,80.19
2023-01-06T15:24:19.531Z,80.71
2023-01-06T15:26:47.567Z,80.59
2023-01-06T15:29:18.063Z,80.66
2023-01-06T15:31:47.654Z,81.16
2023-01-06T15:34:19.251Z,81.34
2023-01-06T15:36:49.597Z,81.76
2023-01-06T15:39:23.509Z,82.09
2023-01-06T15:41:51.541Z,82.04
2023-01-06T15:44:26.127Z,82.23
2023-01-06T15:46:57.636Z,82.37
2023-01-06T15:49:31.773Z,82.57
2023-01-06T15:52:05.478Z,82.84
2023-01-06T15:54:37.177Z,83.19
2023-01-06T15:57:16.547Z,83.45
2023-01-06T15:59:54.881Z,84.05
2023-01-06T16:02:26.266Z,84.20
2023-01-06T16:04:54.383Z,84.16
2023-01-06T16:07:24.071Z,84.31
2023-01-06T16:09:51.764Z,84.64
2023-01-06T16:12:20.902Z,84.86
2023-01-06T16:14:49.365Z,85.39
2023-01-06T16:17:25.562Z,85.53
2023-01-06T16:20:00.007Z,85.49
2023-01-06T16:22:33.000Z,85.77
2023-01-06T16:25:03.216Z,86.97
2023-01-06T16:27:31.203Z,86.71
2023-01-06T16:30:11.713Z,86.76
2023-01-06T16:32:42.506Z,86.49
2023-01-06T16:35:13.517Z,86.40
2023-01-06T16:37:41.300Z,86.28
2023-01-06T16:40:10.258Z,86.40
2023-01-06T16:42:42.562Z,86.53
2023-01-06T16:45:14.663Z,86.61
2023-01-06T16:47:44.228Z,87.02
2023-01-06T16:50:17.434Z,87.10
2023-01-06T16:52:48.121Z,86.64
2023-01-06T16:55:17.614Z,86.60
2023-01-06T16:57:49.130Z,86.84
2023-01-06T17:00:19.296Z,86.41
2023-01-06T17:02:49.378Z,86.73
2023-01-06T17:05:26.407Z,86.83
2023-01-06T17:07:59.115Z,86.61
2023-01-06T17:10:27.167Z,86.27
2023-01-06T17:13:19.263Z,86.68
2023-01-06T17:15:47.635Z,86.29
2023-01-06T17:18:25.253Z,86.44
2023-01-06T17:20:55.780Z,86.75
2023-01-06T17:23:24.754Z,86.53
2023-01-06T17:26:01.381Z,86.96
2023-01-06T17:28:30.927Z,86.79
2023-01-06T17:31:00.928Z,87.15
2023-01-06T17:33:31.021Z,87.57
2023-01-06T17:35:59.713Z,87.66
2023-01-06T17:38:27.472Z,88.14
2023-01-06T17:40:56.730Z,87.96
2023-01-06T17:43:30.607Z,88.58
2023-01-06T17:45:58.511Z,88.42
2023-01-06T17:48:26.961Z,88.05
2023-01-06T17:50:58.205Z,88.74
2023-01-06T17:53:48.424Z,89.06
2023-01-06T17:56:16.610Z,88.87
2023-01-06T17:58:46.116Z,88.79
2023-01-06T18:01:20.659Z,88.47
2023-01-06T18:03:49.393Z,88.46
2023-01-06T18:06:38.209Z,88.00
2023-01-06T18:09:12.424Z,87.64
2023-01-06T18:11:42.194Z,87.18
2023-01-06T18:14:36.074Z,87.35
2023-01-06T18:17:17.313Z,87.20
2023-01-06T18:19:44.982Z,87.23
2023-01-06T18:22:18.701Z,87.11
2023-01-06T18:24:47.810Z,86.81
2023-01-06T18:27:20.395Z,87.00
2023-01-06T18:29:48.079Z,87.14
2023-01-06T18:32:27.811Z,87.53
2023-01-06T18:34:57.096Z,87.88
2023-01-06T18:37:27.759Z,87.79
2023-01-06T18:39:58.700Z,87.65
2023-01-06T18:42:28.992Z,87.70
2023-01-06T18:45:17.031Z,87.77
2023-01-06T18:47:47.153Z,87.41
2023-01-06T18:50:27.174Z,87.63
2023-01-06T18:52:58.027Z,87.27
2023-01-06T18:55:35.864Z,87.33
2023-01-06T18:58:08.842Z,87.83
2023-01-06T19:00:42.301Z,88.08
2023-01-06T19:03:29.637Z,88.62
2023-01-06T19:06:27.512Z,88.47
2023-01-06T19:08:57.759Z,88.45
2023-01-06T19:11:27.798Z,88.37
2023-01-06T19:13:59.179Z,88.30
2023-01-06T19:16:35.236Z,88.54
2023-01-06T19:19:35.604Z,88.29
2023-01-06T19:22:15.824Z,87.97
2023-01-06T19:24:49.394Z,87.86
2023-01-06T19:27:31.513Z,87.55
2023-01-06T19:30:23.963Z,87.80
2023-01-06T19:32:51.613Z,87.31
2023-01-06T19:35:26.644Z,87.02
2023-01-06T19:37:56.348Z,87.01
2023-01-06T19:40:28.430Z,86.88
2023-01-06T19:43:00.332Z,86.71
2023-01-06T19:45:30.733Z,86.91
2023-01-06T19:48:00.370Z,86.91
2023-01-06T19:50:28.059Z,86.71
2023-01-06T19:52:57.840Z,86.51
2023-01-06T19:55:28.789Z,86.16
2023-01-06T19:57:58.532Z,86.28
2023-01-06T20:00:29.393Z,86.34
2023-01-06T20:02:58.688Z,86.51
2023-01-06T20:05:27.134Z,86.75
2023-01-06T20:07:54.895Z,87.19
2023-01-06T20:10:22.621Z,87.58
2023-01-06T20:12:51.656Z,87.64
2023-01-06T20:15:19.539Z,87.85
2023-01-06T20:17:47.279Z,88.37
2023-01-06T20:20:15.470Z,88.54
2023-01-06T20:22:44.532Z,88.91
2023-01-06T20:25:12.230Z,89.02
2023-01-06T20:27:39.890Z,89.40
2023-01-06T20:30:09.939Z,89.88
2023-01-06T20:32:37.607Z,90.55
2023-01-06T20:35:06.528Z,90.73
2023-01-06T20:37:34.177Z,90.50
2023-01-06T20:40:01.816Z,90.88
2023-01-06T20:42:29.502Z,91.22
2023-01-06T20:44:57.169Z,90.80
2023-01-06T20:47:26.219Z,91.63
2023-01-06T20:49:53.974Z,91.54
2023-01-06T20:52:21.733Z,91.37
2023-01-06T20:54:49.638Z,90.76
2023-01-06T20:57:17.498Z,90.74
2023-01-06T20:59:45.175Z,90.60
2023-01-06T21:02:12.925Z,90.71
2023-01-06T21:04:42.070Z,90.36
2023-01-06T21:07:09.753Z,90.01
2023-01-06T21:09:37.480Z,89.81
2023-01-06T21:12:05.576Z,89.91
2023-01-06T21:14:34.136Z,89.27
2023-01-06T21:17:02.804Z,88.93
2023-01-06T21:19:30.666Z,88.57
2023-01-06T21:21:59.700Z,88.38
2023-01-06T21:24:27.385Z,88.20
2023-01-06T21:26:55.052Z,87.89
2023-01-06T21:29:22.702Z,87.64
2023-01-06T21:31:50.371Z,87.31
2023-01-06T21:34:18.072Z,87.16
2023-01-06T21:36:46.240Z,86.83
2023-01-06T21:39:15.301Z,86.80
2023-01-06T21:42:00.742Z,86.64
2023-01-06T21:44:28.445Z,86.44
2023-01-06T21:46:56.850Z,86.35
2023-01-06T21:49:24.475Z,86.16
2023-01-06T21:51:53.891Z,86.37
2023-01-06T21:54:22.996Z,86.33
2023-01-06T21:56:51.337Z,86.36
2023-01-06T21:59:19.341Z,86.21
2023-01-06T22:01:47.082Z,86.09
2023-01-06T22:04:15.059Z,85.88
2023-01-06T22:06:44.691Z,86.04
2023-01-06T22:09:15.979Z,85.94
2023-01-06T22:11:47.332Z,85.90
2023-01-06T22:14:17.118Z,85.94
2023-01-06T22:16:45.122Z,85.65
2023-01-06T22:19:14.458Z,85.76
2023-01-06T22:21:43.920Z,85.76
2023-01-06T22:24:14.595Z,85.76
2023-01-06T22:26:42.670Z,85.56
2023-01-06T22:29:11.745Z,85.65
2023-01-06T22:31:39.935Z,85.70
2023-01-06T22:34:08.343Z,85.74
2023-01-06T22:36:36.390Z,85.78
2023-01-06T22:39:04.575Z,85.85
2023-01-06T22:41:32.225Z,85.89
2023-01-06T22:43:59.887Z,86.03
2023-01-06T22:46:28.994Z,86.17
2023-01-06T22:48:56.718Z,86.05
2023-01-06T22:51:24.430Z,86.14
2023-01-06T22:53:52.207Z,86.20
2023-01-06T22:56:19.978Z,86.38
2023-01-06T22:58:47.759Z,86.32
2023-01-06T23:01:15.638Z,86.61
2023-01-06T23:03:44.951Z,87.29
2023-01-06T23:06:14.394Z,87.44
2023-01-06T23:08:58.512Z,87.87
2023-01-06T23:11:28.352Z,88.09
2023-01-06T23:13:57.400Z,88.28
2023-01-06T23:16:26.969Z,88.74
2023-01-06T23:18:56.475Z,88.44
2023-01-06T23:21:26.686Z,88.70
2023-01-06T23:23:54.785Z,88.95
2023-01-06T23:26:24.440Z,88.91
2023-01-06T23:28:53.012Z,88.85
2023-01-06T23:31:25.438Z,88.83
2023-01-06T23:33:56.730Z,88.83
2023-01-06T23:36:26.050Z,89.02
2023-01-06T23:38:54.177Z,88.94
2023-01-06T23:41:23.622Z,88.85
2023-01-06T23:43:52.055Z,88.74
2023-01-06T23:46:21.411Z,88.74
2023-01-06T23:48:50.242Z,88.62
2023-01-06T23:51:19.829Z,88.76
2023-01-06T23:53:47.603Z,88.46
2023-01-06T23:56:17.166Z,88.33
2023-01-06T23:58:46.805Z,88.57
